createdAt,value
2022-10-11T00:02:03.689Z,73.73
2022-10-11T00:04:30.494Z,73.88
2022-10-11T00:06:57.272Z,73.31
2022-10-11T00:09:24.239Z,73.88
2022-10-11T00:11:51.090Z,73.74
2022-10-11T00:14:17.919Z,73.93
2022-10-11T00:16:44.862Z,74.30
2022-10-11T00:19:12.041Z,74.35
2022-10-11T00:21:39.567Z,74.38
2022-10-11T00:24:06.754Z,74.74
2022-10-11T00:26:33.589Z,74.59
2022-10-11T00:29:00.535Z,74.73
2022-10-11T00:31:29.897Z,74.88
2022-10-11T00:33:58.852Z,75.08
2022-10-11T00:36:26.424Z,75.11
2022-10-11T00:38:53.264Z,75.21
2022-10-11T00:41:20.073Z,75.33
2022-10-11T00:43:46.920Z,75.38
2022-10-11T00:46:13.694Z,75.62
2022-10-11T00:48:45.099Z,76.02
2022-10-11T00:51:32.654Z,76.61
2022-10-11T00:54:01.948Z,76.94
2022-10-11T00:56:32.929Z,77.36
2022-10-11T00:59:04.559Z,77.78
2022-10-11T01:01:31.792Z,77.89
2022-10-11T01:03:58.966Z,78.19
2022-10-11T01:06:26.138Z,78.58
2022-10-11T01:08:54.196Z,78.78
2022-10-11T01:11:25.855Z,78.99
2022-10-11T01:14:08.589Z,79.13
2022-10-11T01:16:35.363Z,79.40
2022-10-11T01:19:37.429Z,79.72
2022-10-11T01:22:24.396Z,80.16
2022-10-11T01:25:15.541Z,80.45
2022-10-11T01:27:45.309Z,80.83
2022-10-11T01:30:18.382Z,81.32
2022-10-11T01:33:11.324Z,81.77
2022-10-11T01:35:45.674Z,82.13
2022-10-11T01:38:20.998Z,82.62
2022-10-11T01:40:53.163Z,83.15
2022-10-11T01:43:22.036Z,83.39
2022-10-11T01:45:52.898Z,83.75
2022-10-11T01:48:20.121Z,84.00
2022-10-11T01:50:50.741Z,84.19
2022-10-11T01:53:23.279Z,84.59
2022-10-11T01:55:53.091Z,84.78
2022-10-11T01:58:25.227Z,84.94
2022-10-11T02:01:15.240Z,84.95
2022-10-11T02:03:51.157Z,85.18
2022-10-11T02:06:36.811Z,85.04
2022-10-11T02:09:08.487Z,85.58
2022-10-11T02:11:36.574Z,85.67
2022-10-11T02:14:06.456Z,85.92
2022-10-11T02:17:07.803Z,86.13
2022-10-11T02:19:44.055Z,86.51
2022-10-11T02:22:16.320Z,86.54
2022-10-11T02:24:48.997Z,86.73
2022-10-11T02:27:19.388Z,87.04
2022-10-11T02:29:48.895Z,87.09
2022-10-11T02:32:17.736Z,86.68
2022-10-11T02:34:54.112Z,86.74
2022-10-11T02:37:23.929Z,86.47
2022-10-11T02:39:54.088Z,85.92
2022-10-11T02:42:27.215Z,85.77
2022-10-11T02:45:01.446Z,85.32
2022-10-11T02:47:31.916Z,85.29
2022-10-11T02:50:00.254Z,85.22
2022-10-11T02:52:27.839Z,85.44
2022-10-11T02:54:54.716Z,85.47
2022-10-11T02:57:21.602Z,85.38
2022-10-11T02:59:48.407Z,85.56
2022-10-11T03:02:15.311Z,85.76
2022-10-11T03:04:42.107Z,85.70
2022-10-11T03:07:08.926Z,85.46
2022-10-11T03:09:35.756Z,85.55
2022-10-11T03:12:02.707Z,85.29
2022-10-11T03:14:29.525Z,85.57
2022-10-11T03:17:00.737Z,85.66
2022-10-11T03:19:39.073Z,85.97
2022-10-11T03:22:05.948Z,86.05
2022-10-11T03:24:32.705Z,86.17
2022-10-11T03:26:59.704Z,86.32
2022-10-11T03:29:26.516Z,86.20
2022-10-11T03:31:53.329Z,86.51
2022-10-11T03:34:21.095Z,86.46
2022-10-11T03:36:47.875Z,86.97
2022-10-11T03:39:14.764Z,87.00
2022-10-11T03:41:41.576Z,86.82
2022-10-11T03:44:08.415Z,86.86
2022-10-11T03:46:35.309Z,87.08
2022-10-11T03:49:02.240Z,87.19
2022-10-11T03:51:29.033Z,87.27
2022-10-11T03:53:55.845Z,87.25
2022-10-11T03:56:22.620Z,87.32
2022-10-11T03:58:49.579Z,87.35
2022-10-11T04:01:16.515Z,87.82
2022-10-11T04:03:43.456Z,87.88
2022-10-11T04:06:10.403Z,87.76
2022-10-11T04:08:37.224Z,87.98
2022-10-11T04:11:04.384Z,87.95
2022-10-11T04:13:31.375Z,87.67
2022-10-11T04:15:58.238Z,87.63
2022-10-11T04:18:25.135Z,87.56
2022-10-11T04:20:52.053Z,87.87
2022-10-11T04:23:18.942Z,87.96
2022-10-11T04:25:47.081Z,87.95
2022-10-11T04:28:14.258Z,87.57
2022-10-11T04:30:41.104Z,87.80
2022-10-11T04:33:07.901Z,88.02
2022-10-11T04:35:35.056Z,88.66
2022-10-11T04:38:01.879Z,88.10
2022-10-11T04:40:28.701Z,88.19
2022-10-11T04:42:55.585Z,88.30
2022-10-11T04:45:22.562Z,88.40
2022-10-11T04:47:49.345Z,88.72
2022-10-11T04:50:16.499Z,88.81
2022-10-11T04:52:43.512Z,89.26
2022-10-11T04:55:11.220Z,88.98
2022-10-11T04:57:38.169Z,89.41
2022-10-11T05:00:06.003Z,88.97
2022-10-11T05:02:32.908Z,89.69
2022-10-11T05:05:00.167Z,90.19
2022-10-11T05:07:26.971Z,90.50
2022-10-11T05:09:53.792Z,90.64
2022-10-11T05:12:20.686Z,90.96
2022-10-11T05:14:47.540Z,91.49
2022-10-11T05:17:14.386Z,91.40
2022-10-11T05:19:41.262Z,91.05
2022-10-11T05:22:08.290Z,91.01
2022-10-11T05:24:35.162Z,90.94
2022-10-11T05:27:03.579Z,90.70
2022-10-11T05:29:30.628Z,90.69
2022-10-11T05:31:57.816Z,91.37
2022-10-11T05:34:24.832Z,90.89
2022-10-11T05:36:51.802Z,91.05
2022-10-11T05:39:18.633Z,90.83
2022-10-11T05:41:45.465Z,89.94
2022-10-11T05:44:12.361Z,89.44
2022-10-11T05:46:39.309Z,89.81
2022-10-11T05:49:06.227Z,89.28
2022-10-11T05:51:33.001Z,88.79
2022-10-11T05:54:00.198Z,87.74
2022-10-11T05:56:27.129Z,86.39
2022-10-11T05:58:57.502Z,86.68
2022-10-11T06:01:31.081Z,86.06
2022-10-11T06:03:58.045Z,86.30
2022-10-11T06:06:36.899Z,86.78
2022-10-11T06:09:03.801Z,86.91
2022-10-11T06:11:30.779Z,86.27
2022-10-11T06:13:58.436Z,87.24
2022-10-11T06:16:25.658Z,87.41
2022-10-11T06:18:57.517Z,87.60
2022-10-11T06:21:25.136Z,88.12
2022-10-11T06:23:58.336Z,88.26
2022-10-11T06:26:28.123Z,87.58
2022-10-11T06:28:55.030Z,87.49
2022-10-11T06:31:21.951Z,88.06
2022-10-11T06:33:48.881Z,88.75
2022-10-11T06:36:16.833Z,89.41
2022-10-11T06:38:45.319Z,89.64
2022-10-11T06:41:27.626Z,89.91
2022-10-11T06:43:54.844Z,90.44
2022-10-11T06:46:24.187Z,90.40
2022-10-11T06:48:52.108Z,90.36
2022-10-11T06:51:21.811Z,90.93
2022-10-11T06:53:53.059Z,90.80
2022-10-11T06:56:19.992Z,90.08
2022-10-11T06:58:47.448Z,90.23
2022-10-11T07:01:21.376Z,90.42
2022-10-11T07:03:48.599Z,89.82
2022-10-11T07:06:18.560Z,88.94
2022-10-11T07:08:46.028Z,89.43
2022-10-11T07:11:15.314Z,89.61
2022-10-11T07:13:42.391Z,89.88
2022-10-11T07:16:12.463Z,89.41
2022-10-11T07:18:39.650Z,88.98
2022-10-11T07:21:10.639Z,88.43
2022-10-11T07:23:40.840Z,88.70
2022-10-11T07:26:10.328Z,88.82
2022-10-11T07:28:38.704Z,88.66
2022-10-11T07:31:11.828Z,88.50
2022-10-11T07:33:38.885Z,88.04
2022-10-11T07:36:07.508Z,88.12
2022-10-11T07:38:35.042Z,87.98
2022-10-11T07:41:06.203Z,87.55
2022-10-11T07:43:33.269Z,87.27
2022-10-11T07:46:04.868Z,87.57
2022-10-11T07:48:33.764Z,86.80
2022-10-11T07:51:04.983Z,86.00
2022-10-11T07:53:31.885Z,85.92
2022-10-11T07:56:02.575Z,85.30
2022-10-11T07:58:29.632Z,85.14
2022-10-11T08:00:57.088Z,85.26
2022-10-11T08:03:23.931Z,85.25
2022-10-11T08:05:52.364Z,84.97
2022-10-11T08:08:19.659Z,84.68
2022-10-11T08:10:46.638Z,84.43
2022-10-11T08:13:13.758Z,84.44
2022-10-11T08:15:40.649Z,84.02
2022-10-11T08:18:07.562Z,83.21
2022-10-11T08:20:34.608Z,82.85
2022-10-11T08:23:01.497Z,82.13
2022-10-11T08:25:28.340Z,82.40
2022-10-11T08:27:55.279Z,81.94
2022-10-11T08:30:22.393Z,81.75
2022-10-11T08:32:49.382Z,81.38
2022-10-11T08:35:16.322Z,81.10
2022-10-11T08:37:43.133Z,80.91
2022-10-11T08:40:17.329Z,80.75
2022-10-11T08:43:12.246Z,81.57
2022-10-11T08:45:39.025Z,80.75
2022-10-11T08:48:16.178Z,81.14
2022-10-11T08:50:46.646Z,81.18
2022-10-11T08:53:26.354Z,80.99
2022-10-11T08:55:55.091Z,81.49
2022-10-11T08:58:26.332Z,81.47
2022-10-11T09:00:55.836Z,81.68
2022-10-11T09:03:39.860Z,81.06
2022-10-11T09:06:30.800Z,81.31
2022-10-11T09:09:25.059Z,80.95
2022-10-11T09:12:40.702Z,80.38
2022-10-11T09:15:38.636Z,79.97
2022-10-11T09:18:23.149Z,79.47
2022-10-11T09:21:01.053Z,78.61
2022-10-11T09:23:46.583Z,78.51
2022-10-11T09:26:29.214Z,78.34
2022-10-11T09:29:01.655Z,77.57
2022-10-11T09:31:29.838Z,76.26
2022-10-11T09:34:00.366Z,76.01
2022-10-11T09:36:45.542Z,75.71
2022-10-11T09:39:36.670Z,74.79
2022-10-11T09:42:05.586Z,74.19
2022-10-11T09:44:45.375Z,73.63
2022-10-11T09:47:17.044Z,73.15
2022-10-11T09:49:52.205Z,72.00
2022-10-11T09:52:22.946Z,71.07
2022-10-11T09:54:54.607Z,70.95
2022-10-11T09:57:27.971Z,71.16
2022-10-11T10:00:08.704Z,71.19
2022-10-11T10:02:47.561Z,70.94
2022-10-11T10:05:16.691Z,69.74
2022-10-11T10:08:04.558Z,69.44
2022-10-11T10:10:43.946Z,68.82
2022-10-11T10:13:39.289Z,68.04
2022-10-11T10:16:08.880Z,67.87
2022-10-11T10:18:42.721Z,67.91
2022-10-11T10:21:14.681Z,67.71
2022-10-11T10:23:42.244Z,67.86
2022-10-11T10:26:30.937Z,67.03
2022-10-11T10:29:16.812Z,67.54
2022-10-11T10:32:12.880Z,67.60
2022-10-11T10:34:41.554Z,67.67
2022-10-11T10:37:32.427Z,68.31
2022-10-11T10:40:17.487Z,67.74
2022-10-11T10:42:44.512Z,68.34
2022-10-11T10:45:21.152Z,66.30
2022-10-11T10:48:22.344Z,66.54
2022-10-11T10:51:10.631Z,65.44
2022-10-11T10:53:49.804Z,65.08
2022-10-11T10:56:28.074Z,64.60
2022-10-11T10:59:19.765Z,64.32
2022-10-11T11:02:11.086Z,63.37
2022-10-11T11:05:08.683Z,63.80
2022-10-11T11:07:51.786Z,62.89
2022-10-11T11:10:25.576Z,62.72
2022-10-11T11:12:55.203Z,61.78
2022-10-11T11:15:26.499Z,61.25
2022-10-11T11:18:03.776Z,60.97
2022-10-11T11:21:05.313Z,60.67
2022-10-11T11:24:16.856Z,61.46
2022-10-11T11:27:01.701Z,61.56
2022-10-11T11:29:53.210Z,61.32
2022-10-11T11:32:46.945Z,62.18
2022-10-11T11:35:52.971Z,63.65
2022-10-11T11:38:46.144Z,63.06
2022-10-11T11:41:26.202Z,63.05
2022-10-11T11:43:56.232Z,63.44
2022-10-11T11:46:29.122Z,63.41
2022-10-11T11:49:00.519Z,63.27
2022-10-11T11:51:44.058Z,62.91
2022-10-11T11:54:29.763Z,62.37
2022-10-11T11:57:02.640Z,62.64
2022-10-11T11:59:51.696Z,62.97
2022-10-11T12:02:24.481Z,62.87
2022-10-11T12:04:52.383Z,63.16
2022-10-11T12:07:25.044Z,62.95
2022-10-11T12:09:55.395Z,63.29
2022-10-11T12:12:37.581Z,63.58
2022-10-11T12:15:19.952Z,63.26
2022-10-11T12:17:58.676Z,63.57
2022-10-11T12:20:25.511Z,63.81
2022-10-11T12:22:56.318Z,64.20
2022-10-11T12:25:23.122Z,64.01
2022-10-11T12:27:58.695Z,64.64
2022-10-11T12:30:44.569Z,63.60
2022-10-11T12:33:31.028Z,64.29
2022-10-11T12:36:23.932Z,64.35
2022-10-11T12:39:18.416Z,64.79
2022-10-11T12:41:48.236Z,64.73
2022-10-11T12:44:29.104Z,64.13
2022-10-11T12:47:00.570Z,64.91
2022-10-11T12:49:36.479Z,64.34
2022-10-11T12:52:16.923Z,64.39
2022-10-11T12:54:56.066Z,65.15
2022-10-11T12:58:06.346Z,64.59
2022-10-11T13:00:40.819Z,64.48
2022-10-11T13:03:34.818Z,63.74
2022-10-11T13:06:25.163Z,63.86
2022-10-11T13:09:06.949Z,64.28
2022-10-11T13:11:39.208Z,64.35
2022-10-11T13:14:16.141Z,64.11
2022-10-11T13:16:48.486Z,63.55
2022-10-11T13:19:15.978Z,63.94
2022-10-11T13:21:43.730Z,63.59
2022-10-11T13:24:15.126Z,63.72
2022-10-11T13:26:44.346Z,63.12
2022-10-11T13:29:17.428Z,64.17
2022-10-11T13:31:48.374Z,65.54
2022-10-11T13:34:19.720Z,65.84
2022-10-11T13:36:55.485Z,64.73
2022-10-11T13:39:37.537Z,64.74
2022-10-11T13:42:11.952Z,65.45
2022-10-11T13:44:39.767Z,66.24
2022-10-11T13:47:07.094Z,66.79
2022-10-11T13:49:42.854Z,66.41
2022-10-11T13:52:18.611Z,65.61
2022-10-11T13:55:00.912Z,64.24
2022-10-11T13:57:38.584Z,64.35
2022-10-11T14:00:15.117Z,63.74
2022-10-11T14:02:53.495Z,64.34
2022-10-11T14:05:34.124Z,66.15
2022-10-11T14:08:26.558Z,66.70
2022-10-11T14:10:57.181Z,66.82
2022-10-11T14:13:24.718Z,65.74
2022-10-11T14:16:07.509Z,66.86
2022-10-11T14:18:43.020Z,66.61
2022-10-11T14:21:31.642Z,66.86
2022-10-11T14:24:10.714Z,67.88
2022-10-11T14:26:39.180Z,67.92
2022-10-11T14:29:11.612Z,68.09
2022-10-11T14:31:42.025Z,67.55
2022-10-11T14:34:16.731Z,67.72
2022-10-11T14:36:43.540Z,68.11
2022-10-11T14:39:15.406Z,68.43
2022-10-11T14:41:42.840Z,69.40
2022-10-11T14:44:09.730Z,69.89
2022-10-11T14:46:38.722Z,69.52
2022-10-11T14:49:14.479Z,70.46
2022-10-11T14:51:42.071Z,71.10
2022-10-11T14:54:12.302Z,71.72
2022-10-11T14:56:39.424Z,71.74
2022-10-11T14:59:06.809Z,72.17
2022-10-11T15:01:34.111Z,72.39
2022-10-11T15:04:04.601Z,71.67
2022-10-11T15:06:37.033Z,72.55
2022-10-11T15:09:05.324Z,70.28
2022-10-11T15:11:32.334Z,69.11
2022-10-11T15:13:59.656Z,67.76
2022-10-11T15:16:27.746Z,66.53
2022-10-11T15:18:54.565Z,67.83
2022-10-11T15:21:24.390Z,66.74
2022-10-11T15:23:52.394Z,66.80
2022-10-11T15:26:25.483Z,66.14
2022-10-11T15:28:54.219Z,66.03
2022-10-11T15:31:21.772Z,66.35
2022-10-11T15:33:49.043Z,66.02
2022-10-11T15:36:20.178Z,65.90
2022-10-11T15:38:48.326Z,66.47
2022-10-11T15:41:16.875Z,67.12
2022-10-11T15:43:47.342Z,66.33
2022-10-11T15:46:22.526Z,66.00
2022-10-11T15:48:50.884Z,66.68
2022-10-11T15:51:17.858Z,66.15
2022-10-11T15:53:44.976Z,66.40
2022-10-11T15:56:18.894Z,67.09
2022-10-11T15:58:46.576Z,65.84
2022-10-11T16:01:20.671Z,65.96
2022-10-11T16:03:50.145Z,65.38
2022-10-11T16:06:18.954Z,64.85
2022-10-11T16:08:46.230Z,64.95
2022-10-11T16:11:13.706Z,64.55
2022-10-11T16:13:40.875Z,64.23
2022-10-11T16:16:09.710Z,64.14
2022-10-11T16:18:37.107Z,64.08
2022-10-11T16:21:10.009Z,63.19
2022-10-11T16:23:37.966Z,63.16
2022-10-11T16:26:08.130Z,62.95
2022-10-11T16:28:35.876Z,63.19
2022-10-11T16:31:07.823Z,62.82
2022-10-11T16:33:34.698Z,62.63
2022-10-11T16:36:25.705Z,63.15
2022-10-11T16:38:52.527Z,62.56
2022-10-11T16:41:20.348Z,63.46
2022-10-11T16:43:51.226Z,63.36
2022-10-11T16:46:18.965Z,63.40
2022-10-11T16:48:45.983Z,64.28
2022-10-11T16:51:12.837Z,64.86
2022-10-11T16:53:39.943Z,64.48
2022-10-11T16:56:08.547Z,64.47
2022-10-11T16:58:39.122Z,66.66
2022-10-11T17:01:10.864Z,65.57
2022-10-11T17:03:38.756Z,66.86
2022-10-11T17:06:06.675Z,65.57
2022-10-11T17:08:35.552Z,66.58
2022-10-11T17:11:02.713Z,66.77
2022-10-11T17:13:29.749Z,66.63
2022-10-11T17:15:57.284Z,68.79
2022-10-11T17:18:24.150Z,67.41
2022-10-11T17:20:51.223Z,67.47
2022-10-11T17:23:18.104Z,68.36
2022-10-11T17:25:46.676Z,67.61
2022-10-11T17:28:13.960Z,67.94
2022-10-11T17:30:42.130Z,67.72
2022-10-11T17:33:09.284Z,68.13
2022-10-11T17:35:36.414Z,67.56
2022-10-11T17:38:06.337Z,67.67
2022-10-11T17:40:33.423Z,67.29
2022-10-11T17:43:00.324Z,67.41
2022-10-11T17:45:27.339Z,67.55
2022-10-11T17:47:54.452Z,67.45
2022-10-11T17:50:21.399Z,67.00
2022-10-11T17:52:49.202Z,66.76
2022-10-11T17:55:16.475Z,66.98
2022-10-11T17:57:43.871Z,67.02
2022-10-11T18:00:11.314Z,67.25
2022-10-11T18:02:40.349Z,67.35
2022-10-11T18:05:08.192Z,68.30
2022-10-11T18:07:35.057Z,68.71
2022-10-11T18:10:01.976Z,68.61
2022-10-11T18:12:28.893Z,70.64
2022-10-11T18:14:55.673Z,71.74
2022-10-11T18:17:22.534Z,72.86
2022-10-11T18:19:49.440Z,74.24
2022-10-11T18:22:16.246Z,73.89
2022-10-11T18:24:43.067Z,74.72
2022-10-11T18:27:09.856Z,77.09
2022-10-11T18:29:36.765Z,77.86
2022-10-11T18:32:03.680Z,80.61
2022-10-11T18:34:30.527Z,81.07
2022-10-11T18:36:57.262Z,80.88
2022-10-11T18:39:24.234Z,81.91
2022-10-11T18:41:51.094Z,82.34
2022-10-11T18:44:18.099Z,81.77
2022-10-11T18:46:45.592Z,83.45
2022-10-11T18:49:13.626Z,82.64
2022-10-11T18:51:42.389Z,82.53
2022-10-11T18:54:13.894Z,84.98
2022-10-11T18:56:44.014Z,84.01
2022-10-11T18:59:11.171Z,84.70
2022-10-11T19:01:40.707Z,84.31
2022-10-11T19:04:11.964Z,84.28
2022-10-11T19:06:41.377Z,84.68
2022-10-11T19:09:13.962Z,85.41
2022-10-11T19:11:41.941Z,85.13
2022-10-11T19:14:11.643Z,84.69
2022-10-11T19:16:41.991Z,84.89
2022-10-11T19:19:11.489Z,84.81
2022-10-11T19:21:39.218Z,85.73
2022-10-11T19:24:06.408Z,87.16
2022-10-11T19:26:36.851Z,88.03
2022-10-11T19:29:15.511Z,89.44
2022-10-11T19:31:44.999Z,89.15
2022-10-11T19:34:12.098Z,89.71
2022-10-11T19:36:39.296Z,90.12
2022-10-11T19:39:06.437Z,89.91
2022-10-11T19:41:33.478Z,90.49
2022-10-11T19:44:00.336Z,90.55
2022-10-11T19:46:49.940Z,91.13
2022-10-11T19:49:17.674Z,91.18
2022-10-11T19:51:44.891Z,91.46
2022-10-11T19:54:13.743Z,91.92
2022-10-11T19:56:41.080Z,92.96
2022-10-11T19:59:08.311Z,94.34
2022-10-11T20:01:36.446Z,94.59
2022-10-11T20:04:06.476Z,95.57
2022-10-11T20:06:38.338Z,95.33
2022-10-11T20:09:28.031Z,95.16
2022-10-11T20:11:53.982Z,94.96
2022-10-11T20:14:20.843Z,94.68
2022-10-11T20:16:50.417Z,94.80
2022-10-11T20:19:17.700Z,96.15
2022-10-11T20:21:45.342Z,97.04
2022-10-11T20:24:12.902Z,96.88
2022-10-11T20:26:39.842Z,96.21
2022-10-11T20:29:07.103Z,95.51
2022-10-11T20:31:38.220Z,97.89
2022-10-11T20:34:07.549Z,96.49
2022-10-11T20:36:36.387Z,96.00
2022-10-11T20:39:05.316Z,96.25
2022-10-11T20:41:39.955Z,99.24
2022-10-11T20:44:07.991Z,99.60
2022-10-11T20:46:37.646Z,100.00
2022-10-11T20:49:10.534Z,100.00
2022-10-11T20:51:39.214Z,100.00
2022-10-11T20:54:06.267Z,100.00
2022-10-11T20:56:33.963Z,100.00
2022-10-11T20:59:01.660Z,100.00
2022-10-11T21:01:31.926Z,100.00
2022-10-11T21:04:00.388Z,100.00
2022-10-11T21:06:29.990Z,100.00
2022-10-11T21:08:59.164Z,100.00
2022-10-11T21:11:35.204Z,100.00
2022-10-11T21:14:04.071Z,100.00
2022-10-11T21:16:31.550Z,100.00
2022-10-11T21:19:00.352Z,100.00
2022-10-11T21:21:28.536Z,100.00
2022-10-11T21:24:00.946Z,100.00
2022-10-11T21:26:28.592Z,100.00
2022-10-11T21:28:55.670Z,100.00
2022-10-11T21:31:23.388Z,100.00
2022-10-11T21:33:50.395Z,100.00
2022-10-11T21:36:22.713Z,100.00
2022-10-11T21:38:50.530Z,100.00
2022-10-11T21:41:23.335Z,100.00
2022-10-11T21:43:50.249Z,100.00
2022-10-11T21:46:20.613Z,100.00
2022-10-11T21:48:50.112Z,100.00
2022-10-11T21:51:27.075Z,100.00
2022-10-11T21:53:55.181Z,100.00
2022-10-11T21:56:22.416Z,100.00
2022-10-11T21:58:50.338Z,100.00
2022-10-11T22:01:18.796Z,100.00
2022-10-11T22:03:46.865Z,100.00
2022-10-11T22:06:14.399Z,100.00
2022-10-11T22:08:41.878Z,100.00
2022-10-11T22:11:09.095Z,100.00
2022-10-11T22:13:36.160Z,100.00
2022-10-11T22:16:08.126Z,100.00
2022-10-11T22:18:35.009Z,100.00
2022-10-11T22:21:08.093Z,100.00
2022-10-11T22:23:34.996Z,100.00
2022-10-11T22:26:16.382Z,100.00
2022-10-11T22:28:43.871Z,100.00
2022-10-11T22:31:10.959Z,100.00
2022-10-11T22:33:37.957Z,100.00
2022-10-11T22:36:08.835Z,100.00
2022-10-11T22:38:37.338Z,100.00
2022-10-11T22:41:04.165Z,100.00
2022-10-11T22:43:31.182Z,100.00
2022-10-11T22:45:57.967Z,100.00
2022-10-11T22:48:24.804Z,100.00
2022-10-11T22:50:51.680Z,100.00
2022-10-11T22:53:18.837Z,100.00
2022-10-11T22:55:45.634Z,100.00
2022-10-11T22:58:12.443Z,100.00
2022-10-11T23:00:39.571Z,100.00
2022-10-11T23:03:07.540Z,100.00
2022-10-11T23:05:37.228Z,100.00
2022-10-11T23:08:04.051Z,100.00
2022-10-11T23:10:30.866Z,100.00
2022-10-11T23:12:57.691Z,100.00
2022-10-11T23:15:24.527Z,100.00
2022-10-11T23:17:51.284Z,100.00
2022-10-11T23:20:18.145Z,100.00
2022-10-11T23:22:44.970Z,100.00
2022-10-11T23:25:11.839Z,100.00
2022-10-11T23:27:39.054Z,100.00
2022-10-11T23:30:06.574Z,100.00
2022-10-11T23:32:33.415Z,100.00
2022-10-11T23:35:00.230Z,100.00
2022-10-11T23:37:27.073Z,100.00
2022-10-11T23:39:53.894Z,100.00
2022-10-11T23:42:20.682Z,100.00
2022-10-11T23:44:47.471Z,100.00
2022-10-11T23:47:14.253Z,100.00
2022-10-11T23:49:41.085Z,100.00
2022-10-11T23:52:07.818Z,100.00
2022-10-11T23:54:34.591Z,100.00
2022-10-11T23:57:01.367Z,100.00
2022-10-11T23:59:28.139Z,100.00
